AirNav   Air Wisconsin Up To $57,000 Bonus
 
 1515 users online  

49PN Geisinger Heliport
Danville, Pennsylvania, USA

GOING TO DANVILLE?


FAA INFORMATION EFFECTIVE 05 DECEMBER 2019

Location

FAA Identifier: 49PN
Lat/Long: 40-58-22.2100N 076-36-16.6300W
40-58.370167N 076-36.277167W
40.9728361,-76.6046194
(estimated)
Elevation: 600 ft. / 183 m (estimated)
Variation: 11W (1985)
From city: 1 mile N of DANVILLE, PA
Time zone: UTC -5 (UTC -4 during Daylight Saving Time)
Zip code: 17821

Heliport Operations

Heliport use: Private use, MEDICAL USE.
Activation date: 08/1980
Control tower: no
ARTCC: NEW YORK CENTER
FSS: WILLIAMSPORT FLIGHT SERVICE STATION
NOTAMs facility: FDC (NOTAM-D service not available)
Attendance: UNATNDD
Wind indicator: lighted
Segmented circle: no
Lights: SS-SR

Heliport Communications

UNICOM: 123.05
WX AWOS-3 at 79PN (0.3 nm S): 118.075 (570-271-8192)
WX AWOS-3 at N79 (8 nm S): 119.175 (570-672-0389)
WX ASOS at SEG (15 nm SW): 123.975 (570-374-4099)
WX AWOS-3 at ZER (19 nm SE): 127.575 (570-544-2778)

Nearby radio navigation aids

VOR radial/distance  VOR name  Freq  Var
MIPr147/4.1MILTON VORTAC109.2009W
SEGr057/16.7SELINSGROVE VOR/DME110.4008W
FQMr170/23.3WILLIAMSPORT VOR/DME114.4009W
RAVr010/25.2RAVINE VORTAC114.6011W

 
NDB name  Hdg/Dist  Freq  Var  ID
BELLGROVE006/32.332810WBZJ -... --.. .---

Heliport Services

Runway Information

Helipad H2

Dimensions: 47 x 47 ft. / 14 x 14 m
Surface: asphalt/concrete
Latitude: 40-58.367667N
Longitude: 076-36.257833W
Traffic pattern: leftleft

Helipad H1

Dimensions: 46 x 46 ft. / 14 x 14 m
Surface: asphalt
Runway edge lights: PERI
Operational restrictions: SQUARE HELIPAD.
Latitude: 40-58.360833N
Longitude: 076-36.292333W
Elevation: 600.0 ft.
Traffic pattern: leftleft

Heliport Ownership and Management from official FAA records

Ownership: Privately-owned
Owner: GEISINGER MEDICAL CENTER
NORTH ACADEMY AVENUE
DANVILLE, PA 17822
Phone 570-271-6217
Manager: JERRY SPLITT
100 N. ACADEMY AVE
DANVILLE, PA 17822-4050
Phone (570) 271-5124

Heliport Operational Statistics

Aircraft based on the field: 2
Helicopters: 2
    

Additional Remarks

FOR CD CTC WILKES-BARRE APCH AT 570-655-2084.

Instrument Procedures

There are no published instrument procedures at 49PN.

Some nearby airports with instrument procedures:

8N8 - Danville Airport (2 nm SW)
N13 - Bloomsburg Municipal Airport (8 nm E)
N79 - Northumberland County Airport (8 nm S)
KSEG - Penn Valley Airport (15 nm SW)
KZER - Schuylkill County/Joe Zerbey Airport (19 nm SE)
 
Loc | Ops | Rwys | IFR | FBO | Links
Com | Nav | Svcs | Stats | Notes
Area around 49PN (Geisinger Heliport)
 
Road maps at: MapQuest Bing Google
 
Aerial photo
No photo
 
Sectional chart

 
Airport distance calculator
Flying to Geisinger Heliport? Find the distance to fly.

From to 49PN

Sunrise and sunset
Times for 05-Dec-2019
 Local
(UTC-5)
 Zulu
(UTC)
Morning civil twilight06:4611:46
Sunrise07:1712:17
Sunset16:3721:37
Evening civil twilight17:0822:08

Current date and time
Zulu (UTC)  05-Dec-2019 18:40:41
Local (UTC-5)  05-Dec-2019 13:40:41
 
METAR
KSEG 
15nm SW 
051753Z AUTO 29009G15KT 260V340 10SM SCT040 OVC055 03/M04 A2990 RMK AO2 SLP128 60000 T00331039 10039 20017 50009
KIPT 
22nm NW 
051754Z 29013G22KT 10SM BKN036 OVC043 03/M04 A2987 RMK AO2 SNE00 SLP120 P0000 60000 T00281039 10039 20017 51012
KHZL 
28nm E 
051815Z AUTO 28010G15KT 240V310 10SM SCT022 BKN042 OVC049 00/M04 A2983 RMK AO2
TAF
KIPT 
22nm NW 
051743Z 0518/0618 28010G20KT P6SM OVC050 FM060000 29007KT P6SM BKN050 FM060600 VRB04KT P6SM BKN100 FM061600 24007KT P6SM BKN050
NOTAMs
Click for the latest NOTAMs
NOTAMs are issued by the DoD/FAA and will open in a separate window not controlled by AirNav.

 

 
 

Would you like to see your business listed on this page?

 If your business provides an interesting product or service to pilots, flight crews, aircraft, or users of the Geisinger Heliport, you should consider listing it here.  To start the listing process, click on the button below
 
Add a business
 

Other Pages about Geisinger Heliport

Update a link
 
Copyright © AirNav, LLC. All rights reserved. Privacy Policy  Contact